createdAt,value
2022-12-23T00:00:34.627Z,80.85
2022-12-23T00:01:36.508Z,80.81
2022-12-23T00:02:38.679Z,80.86
2022-12-23T00:03:40.812Z,80.73
2022-12-23T00:04:42.574Z,80.74
2022-12-23T00:05:44.573Z,80.64
2022-12-23T00:06:46.249Z,80.70
2022-12-23T00:07:47.910Z,81.10
2022-12-23T00:08:49.680Z,81.56
2022-12-23T00:09:51.463Z,81.44
2022-12-23T00:10:55.834Z,81.31
2022-12-23T00:11:57.487Z,81.28
2022-12-23T00:12:59.180Z,81.79
2022-12-23T00:14:00.861Z,82.21
2022-12-23T00:15:02.563Z,82.45
2022-12-23T00:16:06.161Z,82.53
2022-12-23T00:17:21.530Z,82.59
2022-12-23T00:18:24.591Z,82.30
2022-12-23T00:19:26.329Z,82.12
2022-12-23T00:20:28.053Z,82.20
2022-12-23T00:21:29.983Z,82.40
2022-12-23T00:22:31.987Z,82.55
2022-12-23T00:23:35.420Z,82.58
2022-12-23T00:24:37.092Z,82.30
2022-12-23T00:25:42.187Z,81.95
2022-12-23T00:26:44.162Z,82.12
2022-12-23T00:27:47.968Z,81.56
2022-12-23T00:28:50.558Z,81.68
2022-12-23T00:29:52.226Z,81.82
2022-12-23T00:31:05.627Z,81.84
2022-12-23T00:32:07.488Z,81.73
2022-12-23T00:33:09.208Z,81.78
2022-12-23T00:34:11.723Z,81.53
2022-12-23T00:35:13.413Z,81.96
2022-12-23T00:36:35.410Z,81.94
2022-12-23T00:37:37.132Z,81.88
2022-12-23T00:38:39.052Z,81.89
2022-12-23T00:39:40.729Z,81.92
2022-12-23T00:40:42.792Z,81.71
2022-12-23T00:41:45.095Z,81.50
2022-12-23T00:42:46.923Z,81.41
2022-12-23T00:43:48.691Z,81.37
2022-12-23T00:44:50.459Z,81.37
2022-12-23T00:45:52.302Z,81.25
2022-12-23T00:46:54.311Z,81.32
2022-12-23T00:47:56.020Z,81.38
2022-12-23T00:48:57.960Z,81.50
2022-12-23T00:49:59.609Z,81.56
2022-12-23T00:51:01.285Z,81.54
2022-12-23T00:52:05.412Z,81.38
2022-12-23T00:53:07.164Z,81.45
2022-12-23T00:54:08.918Z,81.61
2022-12-23T00:55:10.579Z,81.72
2022-12-23T00:56:12.222Z,81.79
2022-12-23T00:57:13.971Z,81.80
2022-12-23T00:58:16.792Z,82.00
2022-12-23T00:59:18.536Z,82.05
2022-12-23T01:00:20.817Z,82.05
2022-12-23T01:01:22.666Z,81.86
2022-12-23T01:02:24.588Z,81.78
2022-12-23T01:03:26.436Z,81.84
2022-12-23T01:04:28.302Z,81.61
2022-12-23T01:05:30.084Z,81.65
2022-12-23T01:06:31.815Z,81.56
2022-12-23T01:07:33.547Z,81.71
2022-12-23T01:08:35.356Z,81.92
2022-12-23T01:09:37.129Z,82.43
2022-12-23T01:10:40.589Z,82.82
2022-12-23T01:11:42.794Z,82.90
2022-12-23T01:12:44.469Z,82.80
2022-12-23T01:13:46.137Z,82.75
2022-12-23T01:14:48.388Z,82.65
2022-12-23T01:15:50.023Z,82.67
2022-12-23T01:16:51.774Z,82.52
2022-12-23T01:17:53.533Z,82.58
2022-12-23T01:18:55.266Z,82.46
2022-12-23T01:19:57.019Z,82.57
2022-12-23T01:21:05.533Z,82.84
2022-12-23T01:22:07.216Z,82.76
2022-12-23T01:23:08.878Z,83.08
2022-12-23T01:24:10.582Z,82.89
2022-12-23T01:25:12.386Z,82.86
2022-12-23T01:26:14.074Z,82.57
2022-12-23T01:27:15.848Z,82.71
2022-12-23T01:28:17.535Z,82.89
2022-12-23T01:29:19.243Z,82.56
2022-12-23T01:30:21.054Z,82.34
2022-12-23T01:31:23.864Z,82.12
2022-12-23T01:32:25.609Z,82.09
2022-12-23T01:33:27.609Z,81.72
2022-12-23T01:34:36.023Z,81.80
2022-12-23T01:35:38.368Z,81.82
2022-12-23T01:36:40.018Z,82.83
2022-12-23T01:37:41.850Z,83.30
2022-12-23T01:38:43.599Z,83.22
2022-12-23T01:39:45.369Z,83.12
2022-12-23T01:40:47.160Z,83.13
2022-12-23T01:41:48.890Z,82.98
2022-12-23T01:42:50.676Z,82.23
2022-12-23T01:43:52.593Z,82.62
2022-12-23T01:45:41.216Z,82.89
2022-12-23T01:46:43.120Z,82.68
2022-12-23T01:47:57.860Z,82.41
2022-12-23T01:48:59.579Z,82.89
2022-12-23T01:50:16.889Z,82.96
2022-12-23T01:51:36.632Z,83.21
2022-12-23T01:52:44.600Z,83.36
2022-12-23T01:53:52.420Z,82.88
2022-12-23T01:54:55.303Z,82.86
2022-12-23T01:56:17.129Z,82.54
2022-12-23T01:57:18.851Z,82.42
2022-12-23T01:58:30.622Z,82.44
2022-12-23T01:59:32.776Z,82.82
2022-12-23T02:00:35.434Z,82.93
2022-12-23T02:01:37.361Z,83.14
2022-12-23T02:02:42.594Z,83.49
2022-12-23T02:03:46.222Z,83.85
2022-12-23T02:04:50.010Z,84.16
2022-12-23T02:05:53.242Z,84.31
2022-12-23T02:06:55.207Z,84.36
2022-12-23T02:07:57.195Z,84.40
2022-12-23T02:08:58.914Z,84.76
2022-12-23T02:10:00.828Z,85.07
2022-12-23T02:11:39.022Z,85.10
2022-12-23T02:13:05.480Z,85.36
2022-12-23T02:14:31.730Z,85.68
2022-12-23T02:15:50.621Z,85.45
2022-12-23T02:17:09.289Z,85.43
2022-12-23T02:18:22.811Z,85.74
2022-12-23T02:19:56.892Z,86.24
2022-12-23T02:21:29.494Z,86.70
2022-12-23T02:22:52.297Z,86.62
2022-12-23T02:24:03.244Z,86.57
2022-12-23T02:25:23.472Z,86.22
2022-12-23T02:26:52.522Z,86.20
2022-12-23T02:28:15.395Z,86.10
2022-12-23T02:29:58.847Z,86.00
2022-12-23T02:31:21.956Z,85.83
2022-12-23T02:32:36.759Z,85.93
2022-12-23T02:34:02.632Z,85.88
2022-12-23T02:35:18.551Z,85.93
2022-12-23T02:36:30.827Z,85.98
2022-12-23T02:37:35.580Z,85.99
2022-12-23T02:38:56.886Z,86.14
2022-12-23T02:40:02.869Z,86.06
2022-12-23T02:41:07.623Z,86.00
2022-12-23T02:44:35.917Z,84.92
2022-12-23T02:45:54.728Z,84.42
2022-12-23T02:47:29.461Z,84.45
2022-12-23T02:48:34.010Z,84.70
2022-12-23T02:49:40.841Z,84.66
2022-12-23T02:50:46.101Z,84.80
2022-12-23T02:51:52.666Z,84.75
2022-12-23T02:52:58.750Z,84.78
2022-12-23T02:54:06.058Z,84.80
2022-12-23T02:55:16.806Z,84.65
2022-12-23T02:56:20.522Z,84.61
2022-12-23T02:57:36.784Z,84.51
2022-12-23T02:58:47.513Z,85.06
2022-12-23T02:59:52.197Z,85.13
2022-12-23T03:00:55.569Z,85.02
2022-12-23T03:01:58.610Z,84.89
2022-12-23T03:03:00.492Z,84.76
2022-12-23T03:04:02.605Z,84.46
2022-12-23T03:05:04.725Z,84.05
2022-12-23T03:06:21.050Z,84.24
2022-12-23T03:07:39.097Z,83.89
2022-12-23T03:08:43.911Z,83.59
2022-12-23T03:10:13.776Z,83.58
2022-12-23T03:11:17.463Z,83.18
2022-12-23T03:12:31.266Z,83.16
2022-12-23T03:13:38.589Z,83.12
2022-12-23T03:14:49.101Z,83.49
2022-12-23T03:16:21.685Z,83.25
2022-12-23T03:17:35.176Z,82.92
2022-12-23T03:18:57.456Z,83.04
2022-12-23T03:20:07.905Z,82.96
2022-12-23T03:21:17.561Z,83.53
2022-12-23T03:22:35.793Z,83.59
2022-12-23T03:24:03.879Z,83.71
2022-12-23T03:25:27.027Z,84.77
2022-12-23T03:26:51.112Z,84.73
2022-12-23T03:27:55.416Z,84.60
2022-12-23T03:29:03.838Z,84.65
2022-12-23T03:30:09.195Z,84.56
2022-12-23T03:31:17.304Z,84.48
2022-12-23T03:32:22.354Z,84.23
2022-12-23T03:33:37.344Z,84.63
2022-12-23T03:34:43.296Z,84.86
2022-12-23T03:35:55.655Z,84.92
2022-12-23T03:37:01.149Z,85.01
2022-12-23T03:38:04.192Z,85.36
2022-12-23T03:39:09.812Z,85.71
2022-12-23T03:40:28.267Z,85.92
2022-12-23T03:41:42.669Z,85.69
2022-12-23T03:42:48.523Z,85.70
2022-12-23T03:43:56.585Z,85.58
2022-12-23T03:45:36.943Z,85.45
2022-12-23T03:46:31.063Z,85.36
2022-12-23T03:47:39.364Z,85.18
2022-12-23T03:48:47.717Z,85.20
2022-12-23T03:49:55.661Z,85.73
2022-12-23T03:51:03.099Z,86.16
2022-12-23T03:52:22.033Z,86.43
2022-12-23T03:53:31.158Z,86.03
2022-12-23T03:54:40.613Z,86.17
2022-12-23T03:55:52.162Z,85.97
2022-12-23T03:57:13.623Z,85.92
2022-12-23T03:58:45.822Z,85.68
2022-12-23T03:59:49.881Z,85.64
2022-12-23T04:01:04.921Z,85.54
2022-12-23T04:02:33.131Z,85.38
2022-12-23T04:04:03.864Z,85.48
2022-12-23T04:05:27.655Z,85.30
2022-12-23T04:06:38.435Z,85.22
2022-12-23T04:07:54.816Z,85.02
2022-12-23T04:08:57.418Z,84.67
2022-12-23T04:10:00.244Z,84.85
2022-12-23T04:11:02.964Z,84.70
2022-12-23T04:12:05.326Z,84.62
2022-12-23T04:13:07.693Z,84.47
2022-12-23T04:14:09.441Z,84.72
2022-12-23T04:15:13.268Z,84.58
2022-12-23T04:16:15.916Z,84.72
2022-12-23T04:17:18.936Z,84.70
2022-12-23T04:18:20.826Z,84.76
2022-12-23T04:19:22.646Z,84.90
2022-12-23T04:20:24.808Z,84.57
2022-12-23T04:21:26.659Z,84.64
2022-12-23T04:22:28.313Z,84.50
2022-12-23T04:23:30.035Z,84.73
2022-12-23T04:24:31.738Z,84.75
2022-12-23T04:25:33.487Z,84.75
2022-12-23T04:26:35.278Z,85.21
2022-12-23T04:27:37.312Z,85.23
2022-12-23T04:28:39.065Z,85.18
2022-12-23T04:29:40.847Z,85.29
2022-12-23T04:30:42.705Z,85.29
2022-12-23T04:31:44.506Z,85.37
2022-12-23T04:32:46.304Z,85.63
2022-12-23T04:33:48.036Z,85.72
2022-12-23T04:34:49.721Z,85.63
2022-12-23T04:35:51.444Z,85.47
2022-12-23T04:36:53.420Z,85.85
2022-12-23T04:37:55.275Z,86.09
2022-12-23T04:38:57.022Z,86.18
2022-12-23T04:39:58.670Z,86.14
2022-12-23T04:41:00.392Z,86.17
2022-12-23T04:42:02.105Z,86.58
2022-12-23T04:43:03.880Z,86.52
2022-12-23T04:44:06.117Z,86.60
2022-12-23T04:45:08.384Z,86.49
2022-12-23T04:46:10.152Z,86.39
2022-12-23T04:47:12.011Z,86.44
2022-12-23T04:48:13.722Z,86.37
2022-12-23T04:49:15.456Z,86.04
2022-12-23T04:50:17.269Z,85.89
2022-12-23T04:51:19.141Z,85.93
2022-12-23T04:52:20.898Z,86.00
2022-12-23T04:53:22.794Z,86.10
2022-12-23T04:54:24.537Z,85.81
2022-12-23T04:55:26.320Z,86.09
2022-12-23T04:56:28.084Z,86.15
2022-12-23T04:57:29.796Z,86.09
2022-12-23T04:58:31.471Z,85.79
2022-12-23T04:59:33.941Z,85.83
2022-12-23T05:00:39.550Z,85.86
2022-12-23T05:01:42.093Z,85.65
2022-12-23T05:02:44.206Z,85.81
2022-12-23T05:03:46.765Z,85.64
2022-12-23T05:04:48.590Z,85.36
2022-12-23T05:05:50.259Z,85.87
2022-12-23T05:06:52.018Z,85.88
2022-12-23T05:08:03.629Z,85.77
2022-12-23T05:09:06.113Z,85.73
2022-12-23T05:10:08.758Z,86.30
2022-12-23T05:11:10.486Z,86.44
2022-12-23T05:12:12.517Z,86.76
2022-12-23T05:13:14.238Z,86.97
2022-12-23T05:14:15.866Z,87.19
2022-12-23T05:15:17.619Z,87.17
2022-12-23T05:16:19.495Z,87.48
2022-12-23T05:17:21.354Z,87.39
2022-12-23T05:18:23.121Z,87.32
2022-12-23T05:19:24.806Z,87.18
2022-12-23T05:20:26.550Z,86.89
2022-12-23T05:21:28.222Z,86.81
2022-12-23T05:22:29.907Z,86.92
2022-12-23T05:23:31.630Z,87.44
2022-12-23T05:24:33.328Z,87.61
2022-12-23T05:25:38.737Z,87.65
2022-12-23T05:26:41.400Z,87.60
2022-12-23T05:27:45.551Z,87.52
2022-12-23T05:28:47.350Z,87.36
2022-12-23T05:29:48.967Z,87.40
2022-12-23T05:30:58.736Z,87.20
2022-12-23T05:32:00.427Z,86.91
2022-12-23T05:33:02.124Z,86.87
2022-12-23T05:34:06.679Z,86.78
2022-12-23T05:35:09.234Z,86.74
2022-12-23T05:36:12.280Z,86.99
2022-12-23T05:37:14.004Z,86.74
2022-12-23T05:38:15.667Z,86.97
2022-12-23T05:39:17.362Z,87.03
2022-12-23T05:40:23.551Z,86.89
2022-12-23T05:41:28.286Z,86.76
2022-12-23T05:42:29.944Z,86.72
2022-12-23T05:43:32.025Z,86.46
2022-12-23T05:44:33.784Z,86.19
2022-12-23T05:45:36.617Z,85.69
2022-12-23T05:46:38.466Z,85.51
2022-12-23T05:47:40.188Z,85.16
2022-12-23T05:48:42.659Z,84.87
2022-12-23T05:49:44.358Z,84.30
2022-12-23T05:50:48.801Z,84.01
2022-12-23T05:51:50.645Z,84.28
2022-12-23T05:52:55.462Z,84.28
2022-12-23T05:53:57.405Z,84.37
2022-12-23T05:54:59.282Z,84.30
2022-12-23T05:56:04.701Z,84.44
2022-12-23T05:57:06.555Z,84.72
2022-12-23T05:58:08.251Z,85.22
2022-12-23T05:59:09.948Z,85.22
2022-12-23T06:00:12.132Z,85.61
2022-12-23T06:01:13.889Z,85.78
2022-12-23T06:02:15.958Z,85.68
2022-12-23T06:03:17.962Z,85.65
2022-12-23T06:04:19.796Z,85.71
2022-12-23T06:05:22.235Z,85.53
2022-12-23T06:06:23.967Z,85.67
2022-12-23T06:07:25.721Z,85.48
2022-12-23T06:08:27.514Z,85.43
2022-12-23T06:09:29.260Z,85.63
2022-12-23T06:10:31.063Z,85.95
2022-12-23T06:11:32.815Z,86.28
2022-12-23T06:12:35.161Z,86.28
2022-12-23T06:13:36.942Z,86.39
2022-12-23T06:14:38.597Z,86.18
2022-12-23T06:15:40.255Z,86.01
2022-12-23T06:16:42.151Z,86.16
2022-12-23T06:17:44.132Z,86.19
2022-12-23T06:18:45.934Z,86.13
2022-12-23T06:19:47.625Z,86.23
2022-12-23T06:20:49.345Z,85.86
2022-12-23T06:21:51.071Z,85.97
2022-12-23T06:22:52.889Z,86.08
2022-12-23T06:23:54.657Z,86.16
2022-12-23T06:24:56.432Z,86.43
2022-12-23T06:25:59.819Z,86.24
2022-12-23T06:27:01.740Z,86.60
2022-12-23T06:28:03.497Z,86.66
2022-12-23T06:29:05.337Z,86.75
2022-12-23T06:30:08.163Z,86.80
2022-12-23T06:31:10.041Z,86.90
2022-12-23T06:32:12.993Z,86.90
2022-12-23T06:33:14.937Z,86.92
2022-12-23T06:34:16.731Z,86.85
2022-12-23T06:35:18.536Z,87.17
2022-12-23T06:36:20.428Z,87.54
2022-12-23T06:37:22.239Z,87.43
2022-12-23T06:38:24.088Z,87.22
2022-12-23T06:39:26.359Z,87.01
2022-12-23T06:40:28.116Z,86.89
2022-12-23T06:41:29.990Z,86.94
2022-12-23T06:42:31.662Z,87.04
2022-12-23T06:43:33.410Z,87.06
2022-12-23T06:44:35.134Z,87.04
2022-12-23T06:45:36.864Z,86.73
2022-12-23T06:46:38.715Z,86.66
2022-12-23T06:47:40.462Z,86.60
2022-12-23T06:48:42.134Z,86.68
2022-12-23T06:49:44.139Z,86.62
2022-12-23T06:50:46.063Z,86.41
2022-12-23T06:51:47.766Z,86.58
2022-12-23T06:52:49.471Z,86.53
2022-12-23T06:53:51.211Z,86.60
2022-12-23T06:54:53.024Z,86.68
2022-12-23T06:56:01.721Z,86.71
2022-12-23T06:57:03.575Z,86.69
2022-12-23T06:58:06.713Z,86.69
2022-12-23T06:59:08.452Z,86.72
2022-12-23T07:00:10.820Z,86.68
2022-12-23T07:01:12.857Z,86.52
2022-12-23T07:02:14.906Z,86.43
2022-12-23T07:03:16.978Z,86.13
2022-12-23T07:04:18.789Z,85.87
2022-12-23T07:05:20.840Z,85.48
2022-12-23T07:06:22.606Z,85.23
2022-12-23T07:07:24.365Z,85.18
2022-12-23T07:08:26.025Z,84.90
2022-12-23T07:09:27.847Z,85.26
2022-12-23T07:10:29.610Z,85.22
2022-12-23T07:11:31.368Z,85.24
2022-12-23T07:12:33.272Z,85.01
2022-12-23T07:13:35.557Z,84.85
2022-12-23T07:14:37.243Z,84.90
2022-12-23T07:15:39.867Z,84.62
2022-12-23T07:16:41.823Z,84.35
2022-12-23T07:17:43.658Z,84.37
2022-12-23T07:18:45.338Z,84.00
2022-12-23T07:19:47.173Z,83.50
2022-12-23T07:20:49.801Z,83.02
2022-12-23T07:21:51.496Z,82.81
2022-12-23T07:22:56.279Z,83.22
2022-12-23T07:23:58.061Z,83.75
2022-12-23T07:24:59.788Z,83.76
2022-12-23T07:26:01.632Z,84.16
2022-12-23T07:27:03.581Z,84.63
2022-12-23T07:28:05.418Z,84.44
2022-12-23T07:29:07.323Z,84.25
2022-12-23T07:30:09.624Z,84.26
2022-12-23T07:31:11.320Z,84.24
2022-12-23T07:32:13.331Z,83.63
2022-12-23T07:33:15.533Z,83.61
2022-12-23T07:34:17.386Z,83.47
2022-12-23T07:35:19.717Z,82.64
2022-12-23T07:36:21.502Z,82.81
2022-12-23T07:37:23.197Z,82.85
2022-12-23T07:38:24.927Z,83.43
2022-12-23T07:39:26.698Z,83.56
2022-12-23T07:40:28.355Z,83.38
2022-12-23T07:41:30.077Z,83.25
2022-12-23T07:42:47.367Z,83.11
2022-12-23T07:43:49.269Z,82.79
2022-12-23T07:44:51.043Z,82.19
2022-12-23T07:45:59.522Z,81.89
2022-12-23T07:47:01.917Z,81.59
2022-12-23T07:48:03.749Z,81.24
2022-12-23T07:49:05.777Z,81.13
2022-12-23T07:50:08.444Z,80.37
2022-12-23T07:51:10.175Z,79.98
2022-12-23T07:52:11.845Z,79.34
2022-12-23T07:53:13.617Z,79.95
2022-12-23T07:54:15.457Z,79.94
2022-12-23T07:55:17.111Z,79.81
2022-12-23T07:56:19.277Z,79.91
2022-12-23T07:57:20.952Z,80.09
2022-12-23T07:58:22.746Z,80.47
2022-12-23T07:59:27.603Z,80.45
2022-12-23T08:00:29.404Z,79.33
2022-12-23T08:01:31.229Z,79.02
2022-12-23T08:02:33.483Z,78.93
2022-12-23T08:03:35.750Z,78.32
2022-12-23T08:04:42.660Z,77.46
2022-12-23T08:05:47.669Z,77.37
2022-12-23T08:06:49.367Z,77.63
2022-12-23T08:07:52.051Z,77.99
2022-12-23T08:08:53.794Z,78.15
2022-12-23T08:09:55.578Z,78.25
2022-12-23T08:10:58.781Z,78.23
2022-12-23T08:12:00.549Z,77.69
2022-12-23T08:13:02.489Z,77.84
2022-12-23T08:14:04.240Z,77.45
2022-12-23T08:15:07.285Z,76.32
2022-12-23T08:16:10.283Z,76.35
2022-12-23T08:17:12.351Z,76.75
2022-12-23T08:18:14.072Z,77.06
2022-12-23T08:19:15.914Z,77.97
2022-12-23T08:20:17.615Z,78.48
2022-12-23T08:21:19.926Z,77.71
2022-12-23T08:22:21.847Z,77.50
2022-12-23T08:23:25.038Z,77.70
2022-12-23T08:24:27.129Z,76.19
2022-12-23T08:25:28.856Z,75.29
2022-12-23T08:26:30.507Z,74.34
2022-12-23T08:27:32.417Z,74.28
2022-12-23T08:28:35.879Z,73.87
2022-12-23T08:29:39.645Z,73.78
2022-12-23T08:30:41.502Z,73.26
2022-12-23T08:31:43.203Z,72.92
2022-12-23T08:32:45.088Z,72.64
2022-12-23T08:33:50.027Z,72.07
2022-12-23T08:34:51.779Z,71.62
2022-12-23T08:35:56.496Z,71.32
2022-12-23T08:36:58.221Z,70.11
2022-12-23T08:37:59.939Z,69.81
2022-12-23T08:39:05.004Z,69.02
2022-12-23T08:40:07.353Z,67.80
2022-12-23T08:41:14.402Z,67.81
2022-12-23T08:42:16.066Z,68.56
2022-12-23T08:43:17.753Z,67.90
2022-12-23T08:44:19.857Z,66.94
2022-12-23T08:45:21.632Z,67.72
2022-12-23T08:46:24.135Z,68.32
2022-12-23T08:47:25.888Z,68.10
2022-12-23T08:48:27.647Z,67.92
2022-12-23T08:49:29.389Z,67.25
2022-12-23T08:50:31.219Z,65.92
2022-12-23T08:51:33.619Z,65.47
2022-12-23T08:52:35.403Z,65.53
2022-12-23T08:53:39.587Z,65.48
2022-12-23T08:54:41.371Z,64.44
2022-12-23T08:55:48.793Z,65.70
2022-12-23T08:56:50.625Z,65.00
2022-12-23T08:57:52.417Z,64.86
2022-12-23T08:58:55.427Z,64.29
2022-12-23T08:59:57.157Z,63.65
2022-12-23T09:01:03.550Z,64.45
2022-12-23T09:02:06.000Z,63.53
2022-12-23T09:03:08.421Z,62.14
2022-12-23T09:04:10.228Z,61.82
2022-12-23T09:05:11.895Z,61.05
2022-12-23T09:06:24.710Z,60.85
2022-12-23T09:07:30.447Z,60.28
2022-12-23T09:08:32.285Z,60.30
2022-12-23T09:09:34.036Z,60.87
2022-12-23T09:10:41.870Z,61.25
2022-12-23T09:11:44.043Z,59.47
2022-12-23T09:12:45.791Z,58.90
2022-12-23T09:13:48.622Z,58.94
2022-12-23T09:14:50.503Z,57.99
2022-12-23T09:15:52.571Z,57.82
2022-12-23T09:16:54.361Z,59.24
2022-12-23T09:17:56.433Z,60.42
2022-12-23T09:18:58.087Z,61.05
2022-12-23T09:19:59.855Z,59.83
2022-12-23T09:21:07.575Z,61.45
2022-12-23T09:22:09.664Z,61.95
2022-12-23T09:23:11.467Z,61.49
2022-12-23T09:24:13.489Z,60.90
2022-12-23T09:25:15.462Z,59.82
2022-12-23T09:26:20.008Z,59.18
2022-12-23T09:27:21.745Z,58.54
2022-12-23T09:28:24.626Z,58.31
2022-12-23T09:29:26.372Z,56.89
2022-12-23T09:30:28.145Z,58.02
2022-12-23T09:31:36.210Z,58.71
2022-12-23T09:32:39.220Z,59.45
2022-12-23T09:33:41.068Z,59.54
2022-12-23T09:34:42.835Z,60.39
2022-12-23T09:35:45.787Z,61.25
2022-12-23T09:36:53.413Z,60.92
2022-12-23T09:37:56.991Z,60.17
2022-12-23T09:38:59.229Z,59.55
2022-12-23T09:40:01.197Z,59.87
2022-12-23T09:41:10.089Z,60.04
2022-12-23T09:42:53.020Z,59.26
2022-12-23T09:44:25.405Z,57.86
2022-12-23T09:46:22.161Z,57.99
2022-12-23T09:47:28.221Z,58.25
2022-12-23T09:48:36.094Z,57.74
2022-12-23T09:49:43.033Z,58.62
2022-12-23T09:50:45.337Z,57.92
2022-12-23T09:51:49.050Z,58.89
2022-12-23T09:53:11.829Z,58.33
2022-12-23T09:54:23.580Z,58.94
2022-12-23T09:55:46.833Z,57.75
2022-12-23T09:57:14.420Z,57.34
2022-12-23T09:58:28.937Z,57.01
2022-12-23T09:59:50.806Z,58.53
2022-12-23T10:01:06.111Z,57.75
2022-12-23T10:02:29.359Z,57.14
2022-12-23T10:03:50.364Z,56.18
2022-12-23T10:05:34.265Z,57.54
2022-12-23T10:06:38.689Z,56.83
2022-12-23T10:07:45.920Z,57.39
2022-12-23T10:08:51.877Z,56.86
2022-12-23T10:09:56.468Z,57.49
2022-12-23T10:11:10.880Z,56.21
2022-12-23T10:12:40.274Z,55.15
2022-12-23T10:14:02.562Z,55.31
2022-12-23T10:15:18.325Z,56.61
2022-12-23T10:16:26.485Z,56.18
2022-12-23T10:17:38.468Z,57.49
2022-12-23T10:18:50.543Z,57.25
2022-12-23T10:19:57.060Z,58.83
2022-12-23T10:21:12.019Z,60.24
2022-12-23T10:22:38.491Z,60.13
2022-12-23T10:23:44.171Z,61.18
2022-12-23T10:24:47.728Z,61.89
2022-12-23T10:25:51.671Z,61.50
2022-12-23T10:27:15.402Z,61.97
2022-12-23T10:28:17.335Z,62.40
2022-12-23T10:29:22.144Z,62.18
2022-12-23T10:30:54.032Z,62.42
2022-12-23T10:32:19.761Z,62.31
2022-12-23T10:33:25.381Z,62.63
2022-12-23T10:34:38.744Z,63.30
2022-12-23T10:36:05.371Z,63.29
2022-12-23T10:37:17.578Z,63.35
2022-12-23T10:38:31.586Z,63.53
2022-12-23T10:39:36.363Z,63.61
2022-12-23T10:40:54.942Z,63.80
2022-12-23T10:41:59.965Z,63.56
2022-12-23T10:43:20.816Z,63.26
2022-12-23T10:44:40.979Z,63.40
2022-12-23T10:46:01.479Z,62.43
2022-12-23T10:47:03.798Z,63.64
2022-12-23T10:48:27.754Z,63.10
2022-12-23T10:49:44.448Z,63.15
2022-12-23T10:51:10.212Z,63.25
2022-12-23T10:52:18.975Z,63.02
2022-12-23T10:53:41.146Z,63.18
2022-12-23T10:54:46.386Z,63.54
2022-12-23T10:55:50.343Z,63.16
2022-12-23T10:56:54.271Z,62.61
2022-12-23T10:58:25.593Z,62.17
2022-12-23T10:59:36.633Z,62.06
2022-12-23T11:00:52.234Z,62.95
2022-12-23T11:02:29.493Z,61.90
2022-12-23T11:03:51.903Z,61.94
2022-12-23T11:04:54.531Z,61.86
2022-12-23T11:05:57.688Z,61.71
2022-12-23T11:07:26.188Z,61.14
2022-12-23T11:08:23.093Z,62.35
2022-12-23T11:09:28.402Z,62.63
2022-12-23T11:10:33.098Z,62.45
2022-12-23T11:12:03.550Z,62.16
2022-12-23T11:13:05.507Z,61.76
2022-12-23T11:14:30.124Z,61.97
2022-12-23T11:15:40.433Z,62.34
2022-12-23T11:16:46.163Z,62.43
2022-12-23T11:18:15.987Z,62.79
2022-12-23T11:19:17.746Z,62.98
2022-12-23T11:20:19.827Z,62.68
2022-12-23T11:21:21.803Z,63.01
2022-12-23T11:22:25.594Z,63.35
2022-12-23T11:23:36.496Z,63.52
2022-12-23T11:24:43.162Z,63.47
2022-12-23T11:25:46.282Z,63.59
2022-12-23T11:26:58.535Z,63.02
2022-12-23T11:28:12.327Z,62.44
2022-12-23T11:29:40.317Z,62.60
2022-12-23T11:30:57.342Z,62.99
2022-12-23T11:32:00.386Z,63.05
2022-12-23T11:33:02.357Z,62.95
2022-12-23T11:34:37.789Z,63.29
2022-12-23T11:35:39.739Z,63.77
2022-12-23T11:36:41.835Z,63.77
2022-12-23T11:37:43.976Z,63.65
2022-12-23T11:38:51.807Z,63.55
2022-12-23T11:39:53.747Z,64.17
2022-12-23T11:40:55.964Z,64.44
2022-12-23T11:42:20.466Z,64.24
2022-12-23T11:43:24.546Z,64.07
2022-12-23T11:44:41.750Z,64.19
2022-12-23T11:45:43.690Z,64.58
2022-12-23T11:46:45.826Z,64.64
2022-12-23T11:47:47.839Z,64.80
2022-12-23T11:48:54.626Z,64.68
2022-12-23T11:50:02.441Z,64.53
2022-12-23T11:51:04.655Z,64.37
2022-12-23T11:52:06.624Z,63.63
2022-12-23T11:53:22.059Z,63.51
2022-12-23T11:54:23.891Z,63.67
2022-12-23T11:55:28.023Z,64.02
2022-12-23T11:56:40.503Z,62.95
2022-12-23T11:57:46.760Z,62.89
2022-12-23T11:58:53.862Z,63.20
2022-12-23T11:59:59.987Z,63.68
2022-12-23T12:01:08.689Z,63.41
2022-12-23T12:02:18.447Z,63.10
2022-12-23T12:03:25.007Z,63.15
2022-12-23T12:04:31.788Z,62.79
2022-12-23T12:05:38.123Z,62.91
2022-12-23T12:06:49.801Z,63.33
2022-12-23T12:08:01.130Z,63.28
2022-12-23T12:09:05.910Z,63.54
2022-12-23T12:10:18.017Z,63.69
2022-12-23T12:11:39.924Z,63.74
2022-12-23T12:12:41.709Z,63.76
2022-12-23T12:13:48.004Z,63.66
2022-12-23T12:14:52.896Z,63.22
2022-12-23T12:16:31.594Z,63.34
2022-12-23T12:17:41.152Z,62.97
2022-12-23T12:18:47.118Z,62.86
2022-12-23T12:20:16.738Z,62.59
2022-12-23T12:21:24.493Z,63.05
2022-12-23T12:22:36.438Z,63.50
2022-12-23T12:23:41.180Z,63.73
2022-12-23T12:24:53.213Z,64.19
2022-12-23T12:26:01.905Z,64.28
2022-12-23T12:27:08.390Z,64.41
2022-12-23T12:28:30.296Z,64.70
2022-12-23T12:30:08.063Z,65.02
2022-12-23T12:31:17.539Z,64.39
2022-12-23T12:32:29.448Z,64.60
2022-12-23T12:33:36.713Z,64.76
2022-12-23T12:34:58.007Z,65.08
2022-12-23T12:36:07.095Z,65.40
2022-12-23T12:37:34.196Z,65.72
2022-12-23T12:38:39.254Z,65.35
2022-12-23T12:39:49.472Z,65.36
2022-12-23T12:41:16.296Z,64.33
2022-12-23T12:42:35.350Z,64.17
2022-12-23T12:44:03.925Z,65.02
2022-12-23T12:45:16.948Z,66.12
2022-12-23T12:46:18.812Z,65.90
2022-12-23T12:47:56.629Z,65.60
2022-12-23T12:49:15.361Z,66.08
2022-12-23T12:50:30.993Z,66.49
2022-12-23T12:51:48.561Z,66.52
2022-12-23T12:52:54.071Z,66.58
2022-12-23T12:54:05.898Z,66.13
2022-12-23T12:55:11.047Z,66.17
2022-12-23T12:56:24.741Z,65.80
2022-12-23T12:57:26.886Z,65.35
2022-12-23T12:58:28.712Z,65.35
2022-12-23T12:59:36.232Z,65.58
2022-12-23T13:01:07.232Z,66.19
2022-12-23T13:02:49.660Z,66.27
2022-12-23T13:04:21.832Z,66.67
2022-12-23T13:05:49.962Z,66.51
2022-12-23T13:06:55.200Z,66.66
2022-12-23T13:08:25.069Z,66.82
2022-12-23T13:09:56.709Z,66.64
2022-12-23T13:11:28.769Z,66.92
2022-12-23T13:12:56.948Z,66.54
2022-12-23T13:14:29.902Z,66.27
2022-12-23T13:16:22.556Z,65.84
2022-12-23T13:18:00.346Z,66.04
2022-12-23T13:19:25.777Z,66.02
2022-12-23T13:21:01.755Z,66.17
2022-12-23T13:22:09.774Z,66.38
2022-12-23T13:23:48.910Z,66.57
2022-12-23T13:25:05.832Z,66.38
2022-12-23T13:26:23.771Z,66.36
2022-12-23T13:27:52.255Z,66.30
2022-12-23T13:29:02.337Z,66.29
2022-12-23T13:30:12.230Z,66.03
2022-12-23T13:31:26.553Z,66.41
2022-12-23T13:32:46.442Z,66.72
2022-12-23T13:34:32.250Z,66.64
2022-12-23T13:36:13.397Z,66.35
2022-12-23T13:37:45.948Z,66.23
2022-12-23T13:39:09.336Z,66.02
2022-12-23T13:40:26.332Z,65.40
2022-12-23T13:41:39.924Z,64.93
2022-12-23T13:42:48.442Z,65.11
2022-12-23T13:44:02.032Z,65.68
2022-12-23T13:45:06.562Z,65.84
2022-12-23T13:46:30.407Z,66.14
2022-12-23T13:48:05.087Z,65.95
2022-12-23T13:49:46.133Z,65.98
2022-12-23T13:50:58.503Z,66.19
2022-12-23T13:52:14.558Z,66.36
2022-12-23T13:53:28.169Z,66.65
2022-12-23T13:54:46.897Z,66.73
2022-12-23T13:56:14.416Z,67.06
2022-12-23T13:57:28.705Z,67.44
2022-12-23T13:58:31.993Z,67.54
2022-12-23T13:59:42.700Z,67.47
2022-12-23T14:00:45.042Z,67.67
2022-12-23T14:01:49.166Z,67.62
2022-12-23T14:02:53.497Z,67.29
2022-12-23T14:03:55.364Z,67.38
2022-12-23T14:04:59.372Z,67.78
2022-12-23T14:06:26.092Z,68.45
2022-12-23T14:07:30.844Z,68.18
2022-12-23T14:08:43.034Z,68.51
2022-12-23T14:09:57.841Z,68.74
2022-12-23T14:11:31.574Z,69.27
2022-12-23T14:12:38.194Z,69.32
2022-12-23T14:13:51.705Z,70.13
2022-12-23T14:15:39.026Z,69.48
2022-12-23T14:17:02.244Z,69.57
2022-12-23T14:18:16.139Z,70.10
2022-12-23T14:19:55.814Z,70.47
2022-12-23T14:21:20.581Z,71.03
2022-12-23T14:22:45.628Z,70.97
2022-12-23T14:24:24.820Z,71.29
2022-12-23T14:25:54.134Z,71.10
2022-12-23T14:26:58.404Z,70.98
2022-12-23T14:28:13.307Z,70.93
2022-12-23T14:29:48.476Z,71.17
2022-12-23T14:30:50.380Z,71.25
2022-12-23T14:31:57.551Z,71.76
2022-12-23T14:33:02.803Z,71.78
2022-12-23T14:34:18.124Z,71.69
2022-12-23T14:35:27.510Z,71.89
2022-12-23T14:36:29.600Z,72.02
2022-12-23T14:37:36.351Z,72.25
2022-12-23T14:38:38.655Z,72.34